sensor_id;sensor_type;location;lat;lon;timestamp;P1;durP1;ratioP1;P2;durP2;ratioP2
65583;SDS011;62116;43.582;1.470;2022-09-27T00:00:22;4.55;;;1.00;;
65583;SDS011;62116;43.582;1.470;2022-09-27T00:02:48;3.97;;;1.25;;
65583;SDS011;62116;43.582;1.470;2022-09-27T00:05:14;4.18;;;0.93;;
65583;SDS011;62116;43.582;1.470;2022-09-27T00:07:40;4.57;;;1.00;;
65583;SDS011;62116;43.582;1.470;2022-09-27T00:10:06;4.97;;;0.90;;
65583;SDS011;62116;43.582;1.470;2022-09-27T00:12:32;4.20;;;1.00;;
65583;SDS011;62116;43.582;1.470;2022-09-27T00:14:58;4.57;;;0.88;;
65583;SDS011;62116;43.582;1.470;2022-09-27T00:17:25;8.18;;;1.38;;
65583;SDS011;62116;43.582;1.470;2022-09-27T00:19:51;3.30;;;0.90;;
65583;SDS011;62116;43.582;1.470;2022-09-27T00:22:17;4.50;;;0.90;;
65583;SDS011;62116;43.582;1.470;2022-09-27T00:24:42;4.97;;;1.02;;
65583;SDS011;62116;43.582;1.470;2022-09-27T00:27:07;4.93;;;1.00;;
65583;SDS011;62116;43.582;1.470;2022-09-27T00:29:33;4.07;;;0.85;;
65583;SDS011;62116;43.582;1.470;2022-09-27T00:31:59;5.00;;;0.98;;
65583;SDS011;62116;43.582;1.470;2022-09-27T00:34:24;5.57;;;0.90;;
65583;SDS011;62116;43.582;1.470;2022-09-27T00:36:50;3.97;;;0.90;;
65583;SDS011;62116;43.582;1.470;2022-09-27T00:39:17;3.00;;;0.82;;
65583;SDS011;62116;43.582;1.470;2022-09-27T00:41:43;4.82;;;0.90;;
65583;SDS011;62116;43.582;1.470;2022-09-27T00:46:51;5.50;;;1.10;;
65583;SDS011;62116;43.582;1.470;2022-09-27T00:49:33;4.38;;;1.00;;
65583;SDS011;62116;43.582;1.470;2022-09-27T00:54:54;5.47;;;1.10;;
65583;SDS011;62116;43.582;1.470;2022-09-27T00:57:25;8.77;;;1.55;;
65583;SDS011;62116;43.582;1.470;2022-09-27T00:59:57;5.97;;;1.35;;
65583;SDS011;62116;43.582;1.470;2022-09-27T01:02:27;6.20;;;1.17;;
65583;SDS011;62116;43.582;1.470;2022-09-27T01:04:53;8.68;;;1.40;;
65583;SDS011;62116;43.582;1.470;2022-09-27T01:07:20;6.82;;;1.10;;
65583;SDS011;62116;43.582;1.470;2022-09-27T01:09:45;6.55;;;1.10;;
65583;SDS011;62116;43.582;1.470;2022-09-27T01:12:22;7.05;;;1.10;;
65583;SDS011;62116;43.582;1.470;2022-09-27T01:25:54;3.30;;;0.77;;
65583;SDS011;62116;43.582;1.470;2022-09-27T01:28:34;4.85;;;0.90;;
65583;SDS011;62116;43.582;1.470;2022-09-27T01:31:23;6.57;;;1.15;;
65583;SDS011;62116;43.582;1.470;2022-09-27T01:34:34;9.38;;;1.85;;
65583;SDS011;62116;43.582;1.470;2022-09-27T01:37:09;7.43;;;1.20;;
65583;SDS011;62116;43.582;1.470;2022-09-27T01:42:36;10.05;;;1.48;;
65583;SDS011;62116;43.582;1.470;2022-09-27T01:45:17;8.45;;;1.38;;
65583;SDS011;62116;43.582;1.470;2022-09-27T01:47:55;10.90;;;1.63;;
65583;SDS011;62116;43.582;1.470;2022-09-27T01:50:25;10.57;;;1.67;;
65583;SDS011;62116;43.582;1.470;2022-09-27T01:52:58;8.98;;;1.60;;
65583;SDS011;62116;43.582;1.470;2022-09-27T01:55:29;9.73;;;1.60;;
65583;SDS011;62116;43.582;1.470;2022-09-27T01:57:59;10.35;;;1.85;;
65583;SDS011;62116;43.582;1.470;2022-09-27T02:00:31;11.77;;;1.55;;
65583;SDS011;62116;43.582;1.470;2022-09-27T02:02:58;12.63;;;1.75;;
65583;SDS011;62116;43.582;1.470;2022-09-27T02:05:30;7.50;;;1.77;;
65583;SDS011;62116;43.582;1.470;2022-09-27T02:11:00;11.73;;;1.90;;
65583;SDS011;62116;43.582;1.470;2022-09-27T02:13:32;12.60;;;2.20;;
65583;SDS011;62116;43.582;1.470;2022-09-27T02:30:10;15.57;;;3.15;;
65583;SDS011;62116;43.582;1.470;2022-09-27T02:32:38;12.60;;;2.10;;
65583;SDS011;62116;43.582;1.470;2022-09-27T02:35:06;10.57;;;1.80;;
65583;SDS011;62116;43.582;1.470;2022-09-27T02:37:37;15.07;;;2.05;;
65583;SDS011;62116;43.582;1.470;2022-09-27T02:40:03;10.77;;;1.63;;
65583;SDS011;62116;43.582;1.470;2022-09-27T02:42:29;21.35;;;2.17;;
65583;SDS011;62116;43.582;1.470;2022-09-27T02:44:56;13.90;;;2.08;;
65583;SDS011;62116;43.582;1.470;2022-09-27T02:47:25;12.23;;;2.20;;
65583;SDS011;62116;43.582;1.470;2022-09-27T03:00:24;12.27;;;1.92;;
65583;SDS011;62116;43.582;1.470;2022-09-27T03:03:14;12.50;;;2.17;;
65583;SDS011;62116;43.582;1.470;2022-09-27T03:05:48;12.93;;;2.20;;
65583;SDS011;62116;43.582;1.470;2022-09-27T03:08:17;10.82;;;2.45;;
65583;SDS011;62116;43.582;1.470;2022-09-27T03:10:44;15.88;;;2.65;;
65583;SDS011;62116;43.582;1.470;2022-09-27T03:13:09;12.68;;;2.50;;
65583;SDS011;62116;43.582;1.470;2022-09-27T03:15:35;11.05;;;1.92;;
65583;SDS011;62116;43.582;1.470;2022-09-27T03:18:01;17.48;;;2.78;;
65583;SDS011;62116;43.582;1.470;2022-09-27T03:20:27;15.88;;;2.53;;
65583;SDS011;62116;43.582;1.470;2022-09-27T03:22:53;11.85;;;1.90;;
65583;SDS011;62116;43.582;1.470;2022-09-27T03:25:20;14.02;;;2.13;;
65583;SDS011;62116;43.582;1.470;2022-09-27T03:27:45;13.65;;;2.20;;
65583;SDS011;62116;43.582;1.470;2022-09-27T03:30:12;12.68;;;2.13;;
65583;SDS011;62116;43.582;1.470;2022-09-27T03:32:42;12.57;;;2.00;;
65583;SDS011;62116;43.582;1.470;2022-09-27T03:35:08;17.48;;;2.33;;
65583;SDS011;62116;43.582;1.470;2022-09-27T03:37:34;13.30;;;2.22;;
65583;SDS011;62116;43.582;1.470;2022-09-27T03:39:59;10.88;;;1.85;;
65583;SDS011;62116;43.582;1.470;2022-09-27T03:42:25;15.30;;;2.40;;
65583;SDS011;62116;43.582;1.470;2022-09-27T03:44:50;10.18;;;2.00;;
65583;SDS011;62116;43.582;1.470;2022-09-27T03:47:16;15.82;;;2.30;;
65583;SDS011;62116;43.582;1.470;2022-09-27T03:49:41;12.27;;;2.65;;
65583;SDS011;62116;43.582;1.470;2022-09-27T03:52:06;14.18;;;2.10;;
65583;SDS011;62116;43.582;1.470;2022-09-27T03:54:32;16.08;;;2.50;;
65583;SDS011;62116;43.582;1.470;2022-09-27T03:56:57;13.02;;;2.22;;
65583;SDS011;62116;43.582;1.470;2022-09-27T03:59:23;10.30;;;2.13;;
65583;SDS011;62116;43.582;1.470;2022-09-27T04:01:48;13.05;;;2.25;;
65583;SDS011;62116;43.582;1.470;2022-09-27T04:04:14;12.63;;;2.10;;
65583;SDS011;62116;43.582;1.470;2022-09-27T04:06:39;11.68;;;2.08;;
65583;SDS011;62116;43.582;1.470;2022-09-27T04:09:05;14.48;;;1.90;;
65583;SDS011;62116;43.582;1.470;2022-09-27T04:11:30;10.43;;;2.00;;
65583;SDS011;62116;43.582;1.470;2022-09-27T04:13:56;13.40;;;1.95;;
65583;SDS011;62116;43.582;1.470;2022-09-27T04:16:21;10.75;;;2.13;;
65583;SDS011;62116;43.582;1.470;2022-09-27T04:18:47;11.10;;;2.00;;
65583;SDS011;62116;43.582;1.470;2022-09-27T04:21:12;13.82;;;1.80;;
65583;SDS011;62116;43.582;1.470;2022-09-27T04:23:38;15.20;;;2.20;;
65583;SDS011;62116;43.582;1.470;2022-09-27T04:26:03;14.52;;;2.33;;
65583;SDS011;62116;43.582;1.470;2022-09-27T04:28:29;11.77;;;2.10;;
65583;SDS011;62116;43.582;1.470;2022-09-27T04:30:56;12.30;;;2.20;;
65583;SDS011;62116;43.582;1.470;2022-09-27T04:33:21;13.68;;;2.17;;
65583;SDS011;62116;43.582;1.470;2022-09-27T04:35:47;14.30;;;2.28;;
65583;SDS011;62116;43.582;1.470;2022-09-27T04:38:32;12.25;;;2.20;;
65583;SDS011;62116;43.582;1.470;2022-09-27T04:40:57;14.05;;;2.22;;
65583;SDS011;62116;43.582;1.470;2022-09-27T04:43:26;14.45;;;2.15;;
65583;SDS011;62116;43.582;1.470;2022-09-27T04:45:52;13.07;;;2.22;;
65583;SDS011;62116;43.582;1.470;2022-09-27T04:48:17;14.85;;;2.30;;
65583;SDS011;62116;43.582;1.470;2022-09-27T04:50:42;15.25;;;2.08;;
65583;SDS011;62116;43.582;1.470;2022-09-27T04:53:11;19.25;;;2.72;;
65583;SDS011;62116;43.582;1.470;2022-09-27T04:55:38;14.32;;;2.10;;
65583;SDS011;62116;43.582;1.470;2022-09-27T04:58:04;12.15;;;2.30;;
65583;SDS011;62116;43.582;1.470;2022-09-27T05:00:29;11.45;;;1.92;;
65583;SDS011;62116;43.582;1.470;2022-09-27T05:02:55;17.30;;;2.53;;
65583;SDS011;62116;43.582;1.470;2022-09-27T05:05:21;15.10;;;2.35;;
65583;SDS011;62116;43.582;1.470;2022-09-27T05:07:46;17.80;;;2.40;;
65583;SDS011;62116;43.582;1.470;2022-09-27T05:10:12;17.23;;;2.53;;
65583;SDS011;62116;43.582;1.470;2022-09-27T05:12:37;20.75;;;2.70;;
65583;SDS011;62116;43.582;1.470;2022-09-27T05:15:03;19.98;;;2.47;;
65583;SDS011;62116;43.582;1.470;2022-09-27T05:17:29;18.65;;;2.55;;
65583;SDS011;62116;43.582;1.470;2022-09-27T05:19:55;18.10;;;2.65;;
65583;SDS011;62116;43.582;1.470;2022-09-27T05:22:20;17.70;;;2.60;;
65583;SDS011;62116;43.582;1.470;2022-09-27T05:24:45;15.88;;;2.47;;
65583;SDS011;62116;43.582;1.470;2022-09-27T05:27:12;21.48;;;3.03;;
65583;SDS011;62116;43.582;1.470;2022-09-27T05:29:42;20.10;;;2.30;;
65583;SDS011;62116;43.582;1.470;2022-09-27T05:32:08;16.33;;;2.72;;
65583;SDS011;62116;43.582;1.470;2022-09-27T05:34:34;16.10;;;2.60;;
65583;SDS011;62116;43.582;1.470;2022-09-27T05:36:59;19.05;;;2.85;;
65583;SDS011;62116;43.582;1.470;2022-09-27T05:39:25;15.73;;;2.85;;
65583;SDS011;62116;43.582;1.470;2022-09-27T05:41:50;16.80;;;2.60;;
65583;SDS011;62116;43.582;1.470;2022-09-27T05:44:19;17.02;;;2.58;;
65583;SDS011;62116;43.582;1.470;2022-09-27T05:46:44;13.95;;;2.28;;
65583;SDS011;62116;43.582;1.470;2022-09-27T05:49:10;18.85;;;2.92;;
65583;SDS011;62116;43.582;1.470;2022-09-27T05:51:35;17.05;;;2.33;;
65583;SDS011;62116;43.582;1.470;2022-09-27T05:54:01;16.92;;;2.22;;
65583;SDS011;62116;43.582;1.470;2022-09-27T05:56:27;13.85;;;2.30;;
65583;SDS011;62116;43.582;1.470;2022-09-27T05:58:52;19.80;;;2.40;;
65583;SDS011;62116;43.582;1.470;2022-09-27T06:01:18;24.50;;;2.90;;
65583;SDS011;62116;43.582;1.470;2022-09-27T06:03:43;16.20;;;2.17;;
65583;SDS011;62116;43.582;1.470;2022-09-27T06:06:10;21.25;;;2.53;;
65583;SDS011;62116;43.582;1.470;2022-09-27T06:08:36;19.92;;;2.42;;
65583;SDS011;62116;43.582;1.470;2022-09-27T06:11:03;22.20;;;2.53;;
65583;SDS011;62116;43.582;1.470;2022-09-27T06:13:31;16.42;;;2.28;;
65583;SDS011;62116;43.582;1.470;2022-09-27T06:16:06;17.42;;;2.55;;
65583;SDS011;62116;43.582;1.470;2022-09-27T06:18:34;15.57;;;2.53;;
65583;SDS011;62116;43.582;1.470;2022-09-27T06:21:00;15.05;;;2.25;;
65583;SDS011;62116;43.582;1.470;2022-09-27T06:23:26;14.73;;;2.28;;
65583;SDS011;62116;43.582;1.470;2022-09-27T06:25:52;17.77;;;3.05;;
65583;SDS011;62116;43.582;1.470;2022-09-27T06:28:18;15.05;;;2.47;;
65583;SDS011;62116;43.582;1.470;2022-09-27T06:30:46;15.75;;;2.40;;
65583;SDS011;62116;43.582;1.470;2022-09-27T06:33:14;15.35;;;2.13;;
65583;SDS011;62116;43.582;1.470;2022-09-27T06:35:41;18.50;;;2.80;;
65583;SDS011;62116;43.582;1.470;2022-09-27T06:38:09;16.55;;;2.63;;
65583;SDS011;62116;43.582;1.470;2022-09-27T06:40:36;18.02;;;2.45;;
65583;SDS011;62116;43.582;1.470;2022-09-27T06:43:02;21.35;;;2.55;;
65583;SDS011;62116;43.582;1.470;2022-09-27T06:45:32;16.00;;;2.45;;
65583;SDS011;62116;43.582;1.470;2022-09-27T06:47:59;13.10;;;2.25;;
65583;SDS011;62116;43.582;1.470;2022-09-27T06:50:27;19.77;;;2.47;;
65583;SDS011;62116;43.582;1.470;2022-09-27T06:52:53;15.30;;;2.55;;
65583;SDS011;62116;43.582;1.470;2022-09-27T06:55:19;18.05;;;2.38;;
65583;SDS011;62116;43.582;1.470;2022-09-27T06:57:44;13.82;;;2.45;;
65583;SDS011;62116;43.582;1.470;2022-09-27T07:00:28;18.27;;;2.50;;
65583;SDS011;62116;43.582;1.470;2022-09-27T07:02:55;15.73;;;2.50;;
65583;SDS011;62116;43.582;1.470;2022-09-27T07:05:32;21.23;;;2.78;;
65583;SDS011;62116;43.582;1.470;2022-09-27T07:07:57;15.70;;;2.15;;
65583;SDS011;62116;43.582;1.470;2022-09-27T07:10:24;16.98;;;2.55;;
65583;SDS011;62116;43.582;1.470;2022-09-27T07:12:54;18.37;;;2.93;;
65583;SDS011;62116;43.582;1.470;2022-09-27T07:15:20;18.35;;;2.75;;
65583;SDS011;62116;43.582;1.470;2022-09-27T07:17:47;13.93;;;2.45;;
65583;SDS011;62116;43.582;1.470;2022-09-27T07:20:20;18.10;;;2.83;;
65583;SDS011;62116;43.582;1.470;2022-09-27T07:22:45;15.65;;;2.28;;
65583;SDS011;62116;43.582;1.470;2022-09-27T07:25:10;17.90;;;2.83;;
65583;SDS011;62116;43.582;1.470;2022-09-27T07:27:36;20.65;;;2.60;;
65583;SDS011;62116;43.582;1.470;2022-09-27T07:30:02;11.80;;;2.33;;
65583;SDS011;62116;43.582;1.470;2022-09-27T07:32:28;13.68;;;2.20;;
65583;SDS011;62116;43.582;1.470;2022-09-27T07:34:54;17.80;;;2.60;;
65583;SDS011;62116;43.582;1.470;2022-09-27T07:37:19;17.52;;;2.70;;
65583;SDS011;62116;43.582;1.470;2022-09-27T07:39:44;16.20;;;2.30;;
65583;SDS011;62116;43.582;1.470;2022-09-27T07:42:10;24.45;;;2.85;;
65583;SDS011;62116;43.582;1.470;2022-09-27T07:44:35;13.63;;;2.50;;
65583;SDS011;62116;43.582;1.470;2022-09-27T07:47:01;14.57;;;2.40;;
65583;SDS011;62116;43.582;1.470;2022-09-27T07:49:30;18.80;;;3.08;;
65583;SDS011;62116;43.582;1.470;2022-09-27T07:51:56;21.23;;;2.60;;
65583;SDS011;62116;43.582;1.470;2022-09-27T07:54:21;16.40;;;2.40;;
65583;SDS011;62116;43.582;1.470;2022-09-27T07:56:46;19.33;;;2.65;;
65583;SDS011;62116;43.582;1.470;2022-09-27T07:59:12;14.23;;;2.60;;
65583;SDS011;62116;43.582;1.470;2022-09-27T08:01:37;15.77;;;2.63;;
65583;SDS011;62116;43.582;1.470;2022-09-27T08:04:03;20.38;;;2.88;;
65583;SDS011;62116;43.582;1.470;2022-09-27T08:06:29;16.50;;;3.25;;
65583;SDS011;62116;43.582;1.470;2022-09-27T08:08:55;14.30;;;2.53;;
65583;SDS011;62116;43.582;1.470;2022-09-27T08:11:21;23.42;;;3.50;;
65583;SDS011;62116;43.582;1.470;2022-09-27T08:13:47;19.95;;;2.80;;
65583;SDS011;62116;43.582;1.470;2022-09-27T08:16:13;17.42;;;2.85;;
65583;SDS011;62116;43.582;1.470;2022-09-27T08:18:39;22.52;;;3.78;;
65583;SDS011;62116;43.582;1.470;2022-09-27T08:21:05;17.25;;;2.95;;
65583;SDS011;62116;43.582;1.470;2022-09-27T08:23:30;20.27;;;3.17;;
65583;SDS011;62116;43.582;1.470;2022-09-27T08:25:56;18.30;;;3.08;;
65583;SDS011;62116;43.582;1.470;2022-09-27T08:28:23;16.92;;;2.92;;
65583;SDS011;62116;43.582;1.470;2022-09-27T08:30:50;22.88;;;3.13;;
65583;SDS011;62116;43.582;1.470;2022-09-27T08:33:15;18.92;;;2.65;;
65583;SDS011;62116;43.582;1.470;2022-09-27T08:35:41;15.30;;;2.60;;
65583;SDS011;62116;43.582;1.470;2022-09-27T08:38:08;18.05;;;2.70;;
65583;SDS011;62116;43.582;1.470;2022-09-27T08:40:41;17.50;;;2.85;;
65583;SDS011;62116;43.582;1.470;2022-09-27T08:48:41;15.98;;;2.92;;
65583;SDS011;62116;43.582;1.470;2022-09-27T08:51:10;14.32;;;2.50;;
65583;SDS011;62116;43.582;1.470;2022-09-27T08:53:40;20.13;;;2.92;;
65583;SDS011;62116;43.582;1.470;2022-09-27T08:56:10;21.02;;;3.05;;
65583;SDS011;62116;43.582;1.470;2022-09-27T08:58:42;17.00;;;2.92;;
65583;SDS011;62116;43.582;1.470;2022-09-27T09:01:14;20.85;;;2.70;;
65583;SDS011;62116;43.582;1.470;2022-09-27T09:03:47;22.52;;;3.20;;
65583;SDS011;62116;43.582;1.470;2022-09-27T09:06:32;20.98;;;3.25;;
65583;SDS011;62116;43.582;1.470;2022-09-27T09:09:04;18.52;;;2.60;;
65583;SDS011;62116;43.582;1.470;2022-09-27T09:15:06;18.85;;;2.85;;
65583;SDS011;62116;43.582;1.470;2022-09-27T09:20:21;20.65;;;2.67;;
65583;SDS011;62116;43.582;1.470;2022-09-27T09:28:30;17.27;;;2.80;;
65583;SDS011;62116;43.582;1.470;2022-09-27T09:31:14;16.23;;;2.72;;
65583;SDS011;62116;43.582;1.470;2022-09-27T09:33:53;16.17;;;2.33;;
65583;SDS011;62116;43.582;1.470;2022-09-27T09:36:29;15.02;;;2.58;;
65583;SDS011;62116;43.582;1.470;2022-09-27T09:39:02;16.33;;;2.28;;
65583;SDS011;62116;43.582;1.470;2022-09-27T09:41:39;17.35;;;2.92;;
65583;SDS011;62116;43.582;1.470;2022-09-27T09:46:54;14.90;;;2.45;;
65583;SDS011;62116;43.582;1.470;2022-09-27T09:51:58;12.68;;;2.10;;
65583;SDS011;62116;43.582;1.470;2022-09-27T09:54:33;14.30;;;2.10;;
65583;SDS011;62116;43.582;1.470;2022-09-27T09:57:05;13.32;;;2.72;;
65583;SDS011;62116;43.582;1.470;2022-09-27T09:59:35;17.17;;;2.70;;
65583;SDS011;62116;43.582;1.470;2022-09-27T10:04:57;13.63;;;1.98;;
65583;SDS011;62116;43.582;1.470;2022-09-27T10:07:22;15.80;;;1.90;;
65583;SDS011;62116;43.582;1.470;2022-09-27T10:09:49;12.82;;;2.00;;
65583;SDS011;62116;43.582;1.470;2022-09-27T10:12:17;16.33;;;2.40;;
65583;SDS011;62116;43.582;1.470;2022-09-27T10:14:44;12.85;;;1.98;;
65583;SDS011;62116;43.582;1.470;2022-09-27T10:17:12;16.92;;;2.03;;
65583;SDS011;62116;43.582;1.470;2022-09-27T10:19:42;17.05;;;2.28;;
65583;SDS011;62116;43.582;1.470;2022-09-27T10:27:41;13.73;;;2.50;;
65583;SDS011;62116;43.582;1.470;2022-09-27T10:30:29;14.60;;;2.60;;
65583;SDS011;62116;43.582;1.470;2022-09-27T10:33:02;12.02;;;1.80;;
65583;SDS011;62116;43.582;1.470;2022-09-27T10:35:35;13.93;;;2.08;;
65583;SDS011;62116;43.582;1.470;2022-09-27T10:40:47;10.18;;;2.00;;
65583;SDS011;62116;43.582;1.470;2022-09-27T10:46:05;14.07;;;1.80;;
65583;SDS011;62116;43.582;1.470;2022-09-27T10:48:31;9.85;;;1.70;;
65583;SDS011;62116;43.582;1.470;2022-09-27T10:50:58;9.60;;;1.95;;
65583;SDS011;62116;43.582;1.470;2022-09-27T10:53:28;12.52;;;1.70;;
65583;SDS011;62116;43.582;1.470;2022-09-27T10:55:56;10.50;;;1.75;;
65583;SDS011;62116;43.582;1.470;2022-09-27T11:00:59;8.27;;;1.50;;
65583;SDS011;62116;43.582;1.470;2022-09-27T11:03:31;9.38;;;1.95;;
65583;SDS011;62116;43.582;1.470;2022-09-27T11:05:59;9.70;;;1.83;;
65583;SDS011;62116;43.582;1.470;2022-09-27T11:08:30;9.23;;;1.42;;
65583;SDS011;62116;43.582;1.470;2022-09-27T11:13:38;12.10;;;1.40;;
65583;SDS011;62116;43.582;1.470;2022-09-27T11:19:06;8.63;;;1.60;;
65583;SDS011;62116;43.582;1.470;2022-09-27T12:00:20;9.77;;;1.48;;
65583;SDS011;62116;43.582;1.470;2022-09-27T12:10:35;5.97;;;1.23;;
65583;SDS011;62116;43.582;1.470;2022-09-27T12:13:03;7.80;;;1.65;;
65583;SDS011;62116;43.582;1.470;2022-09-27T12:15:31;8.15;;;1.58;;
65583;SDS011;62116;43.582;1.470;2022-09-27T12:18:09;8.82;;;1.40;;
65583;SDS011;62116;43.582;1.470;2022-09-27T12:20:40;8.07;;;1.15;;
65583;SDS011;62116;43.582;1.470;2022-09-27T12:23:15;7.55;;;1.50;;
65583;SDS011;62116;43.582;1.470;2022-09-27T12:25:46;11.00;;;1.55;;
65583;SDS011;62116;43.582;1.470;2022-09-27T12:28:34;12.55;;;2.00;;
65583;SDS011;62116;43.582;1.470;2022-09-27T12:31:08;9.95;;;1.58;;
65583;SDS011;62116;43.582;1.470;2022-09-27T12:33:47;11.20;;;1.50;;
65583;SDS011;62116;43.582;1.470;2022-09-27T12:36:18;5.55;;;1.10;;
65583;SDS011;62116;43.582;1.470;2022-09-27T12:39:09;9.07;;;1.33;;
65583;SDS011;62116;43.582;1.470;2022-09-27T12:41:59;8.88;;;1.35;;
65583;SDS011;62116;43.582;1.470;2022-09-27T12:44:33;7.68;;;1.05;;
65583;SDS011;62116;43.582;1.470;2022-09-27T12:52:13;10.85;;;1.70;;
65583;SDS011;62116;43.582;1.470;2022-09-27T12:55:01;6.55;;;1.30;;
65583;SDS011;62116;43.582;1.470;2022-09-27T13:05:39;7.28;;;1.25;;
65583;SDS011;62116;43.582;1.470;2022-09-27T13:08:54;6.95;;;1.10;;
65583;SDS011;62116;43.582;1.470;2022-09-27T13:14:30;5.65;;;1.10;;
65583;SDS011;62116;43.582;1.470;2022-09-27T13:16:58;4.90;;;1.00;;
65583;SDS011;62116;43.582;1.470;2022-09-27T13:22:04;8.73;;;1.25;;
65583;SDS011;62116;43.582;1.470;2022-09-27T13:24:55;7.15;;;1.05;;
65583;SDS011;62116;43.582;1.470;2022-09-27T13:35:10;5.60;;;1.20;;
65583;SDS011;62116;43.582;1.470;2022-09-27T13:37:56;9.18;;;1.33;;
65583;SDS011;62116;43.582;1.470;2022-09-27T13:40:29;6.47;;;1.20;;
65583;SDS011;62116;43.582;1.470;2022-09-27T13:43:06;5.78;;;1.13;;
65583;SDS011;62116;43.582;1.470;2022-09-27T13:48:15;7.82;;;1.50;;
65583;SDS011;62116;43.582;1.470;2022-09-27T13:50:46;5.80;;;1.48;;
65583;SDS011;62116;43.582;1.470;2022-09-27T13:55:52;7.07;;;1.20;;
65583;SDS011;62116;43.582;1.470;2022-09-27T14:00:53;10.65;;;1.50;;
65583;SDS011;62116;43.582;1.470;2022-09-27T14:03:25;9.80;;;1.55;;
65583;SDS011;62116;43.582;1.470;2022-09-27T14:06:19;10.38;;;1.73;;
65583;SDS011;62116;43.582;1.470;2022-09-27T14:11:34;7.93;;;1.38;;
65583;SDS011;62116;43.582;1.470;2022-09-27T14:14:03;10.63;;;1.50;;
65583;SDS011;62116;43.582;1.470;2022-09-27T14:16:32;9.02;;;1.42;;
65583;SDS011;62116;43.582;1.470;2022-09-27T14:19:00;4.97;;;1.30;;
65583;SDS011;62116;43.582;1.470;2022-09-27T14:21:33;9.32;;;1.20;;
65583;SDS011;62116;43.582;1.470;2022-09-27T14:29:49;5.57;;;1.60;;
65583;SDS011;62116;43.582;1.470;2022-09-27T14:32:19;7.03;;;1.42;;
65583;SDS011;62116;43.582;1.470;2022-09-27T14:35:01;8.05;;;1.85;;
65583;SDS011;62116;43.582;1.470;2022-09-27T14:37:59;9.15;;;1.80;;
65583;SDS011;62116;43.582;1.470;2022-09-27T14:40:27;7.50;;;1.40;;
65583;SDS011;62116;43.582;1.470;2022-09-27T14:42:57;12.43;;;1.48;;
65583;SDS011;62116;43.582;1.470;2022-09-27T14:45:25;8.02;;;1.50;;
65583;SDS011;62116;43.582;1.470;2022-09-27T14:47:59;9.48;;;1.50;;
65583;SDS011;62116;43.582;1.470;2022-09-27T14:50:28;8.00;;;1.83;;
65583;SDS011;62116;43.582;1.470;2022-09-27T14:52:57;8.52;;;2.28;;
65583;SDS011;62116;43.582;1.470;2022-09-27T14:55:26;6.38;;;1.42;;
65583;SDS011;62116;43.582;1.470;2022-09-27T14:57:54;7.63;;;1.52;;
65583;SDS011;62116;43.582;1.470;2022-09-27T15:00:27;7.18;;;1.65;;
65583;SDS011;62116;43.582;1.470;2022-09-27T15:02:59;8.88;;;1.40;;
65583;SDS011;62116;43.582;1.470;2022-09-27T15:05:29;7.05;;;1.58;;
65583;SDS011;62116;43.582;1.470;2022-09-27T15:07:57;6.60;;;1.60;;
65583;SDS011;62116;43.582;1.470;2022-09-27T15:10:26;7.72;;;1.65;;
65583;SDS011;62116;43.582;1.470;2022-09-27T15:12:55;9.90;;;1.60;;
65583;SDS011;62116;43.582;1.470;2022-09-27T15:15:27;7.32;;;1.70;;
65583;SDS011;62116;43.582;1.470;2022-09-27T15:17:56;6.47;;;1.42;;
65583;SDS011;62116;43.582;1.470;2022-09-27T15:22:55;7.15;;;1.60;;
65583;SDS011;62116;43.582;1.470;2022-09-27T15:25:29;8.52;;;1.60;;
65583;SDS011;62116;43.582;1.470;2022-09-27T15:28:02;8.48;;;1.42;;
65583;SDS011;62116;43.582;1.470;2022-09-27T15:30:54;8.13;;;1.60;;
65583;SDS011;62116;43.582;1.470;2022-09-27T15:33:22;5.53;;;1.25;;
65583;SDS011;62116;43.582;1.470;2022-09-27T15:35:54;4.95;;;1.08;;
65583;SDS011;62116;43.582;1.470;2022-09-27T15:38:22;4.88;;;1.02;;
65583;SDS011;62116;43.582;1.470;2022-09-27T15:45:56;3.95;;;0.88;;
65583;SDS011;62116;43.582;1.470;2022-09-27T15:48:26;5.10;;;1.05;;
65583;SDS011;62116;43.582;1.470;2022-09-27T15:50:51;4.03;;;1.02;;
65583;SDS011;62116;43.582;1.470;2022-09-27T15:56:04;5.35;;;0.80;;
65583;SDS011;62116;43.582;1.470;2022-09-27T15:58:30;4.57;;;1.07;;
65583;SDS011;62116;43.582;1.470;2022-09-27T16:00:58;6.85;;;1.20;;
65583;SDS011;62116;43.582;1.470;2022-09-27T16:03:29;3.85;;;1.00;;
65583;SDS011;62116;43.582;1.470;2022-09-27T16:05:55;3.35;;;0.90;;
65583;SDS011;62116;43.582;1.470;2022-09-27T16:08:22;5.05;;;1.02;;
65583;SDS011;62116;43.582;1.470;2022-09-27T16:10:49;8.60;;;1.20;;
65583;SDS011;62116;43.582;1.470;2022-09-27T16:13:16;5.32;;;1.00;;
65583;SDS011;62116;43.582;1.470;2022-09-27T16:15:41;5.25;;;1.10;;
65583;SDS011;62116;43.582;1.470;2022-09-27T16:18:08;12.18;;;3.70;;
65583;SDS011;62116;43.582;1.470;2022-09-27T16:20:34;4.82;;;1.38;;
65583;SDS011;62116;43.582;1.470;2022-09-27T16:23:00;6.53;;;1.13;;
65583;SDS011;62116;43.582;1.470;2022-09-27T16:25:26;6.88;;;1.50;;
65583;SDS011;62116;43.582;1.470;2022-09-27T16:27:52;5.38;;;1.23;;
65583;SDS011;62116;43.582;1.470;2022-09-27T16:30:18;5.82;;;1.23;;
65583;SDS011;62116;43.582;1.470;2022-09-27T16:32:45;5.10;;;1.20;;
65583;SDS011;62116;43.582;1.470;2022-09-27T16:35:12;6.18;;;1.27;;
65583;SDS011;62116;43.582;1.470;2022-09-27T16:37:39;7.63;;;1.27;;
65583;SDS011;62116;43.582;1.470;2022-09-27T16:40:05;5.55;;;1.40;;
65583;SDS011;62116;43.582;1.470;2022-09-27T16:42:33;5.75;;;1.10;;
65583;SDS011;62116;43.582;1.470;2022-09-27T16:44:59;5.32;;;1.40;;
65583;SDS011;62116;43.582;1.470;2022-09-27T16:47:26;5.40;;;1.30;;
65583;SDS011;62116;43.582;1.470;2022-09-27T16:49:52;6.40;;;1.20;;
65583;SDS011;62116;43.582;1.470;2022-09-27T16:52:35;8.15;;;1.48;;
65583;SDS011;62116;43.582;1.470;2022-09-27T16:55:01;7.43;;;1.60;;
65583;SDS011;62116;43.582;1.470;2022-09-27T16:57:26;13.75;;;1.90;;
65583;SDS011;62116;43.582;1.470;2022-09-27T16:59:57;8.73;;;1.70;;
65583;SDS011;62116;43.582;1.470;2022-09-27T17:02:23;6.88;;;1.48;;
65583;SDS011;62116;43.582;1.470;2022-09-27T17:04:48;10.18;;;1.75;;
65583;SDS011;62116;43.582;1.470;2022-09-27T17:07:14;7.38;;;1.30;;
65583;SDS011;62116;43.582;1.470;2022-09-27T17:09:40;6.57;;;1.30;;
65583;SDS011;62116;43.582;1.470;2022-09-27T17:12:05;5.53;;;1.30;;
65583;SDS011;62116;43.582;1.470;2022-09-27T17:14:31;7.93;;;1.30;;
65583;SDS011;62116;43.582;1.470;2022-09-27T17:16:56;7.97;;;1.25;;
65583;SDS011;62116;43.582;1.470;2022-09-27T17:19:22;3.17;;;0.90;;
65583;SDS011;62116;43.582;1.470;2022-09-27T17:21:48;7.28;;;1.15;;
65583;SDS011;62116;43.582;1.470;2022-09-27T17:24:14;4.53;;;1.00;;
65583;SDS011;62116;43.582;1.470;2022-09-27T17:26:40;5.85;;;1.10;;
65583;SDS011;62116;43.582;1.470;2022-09-27T17:29:06;9.60;;;1.60;;
65583;SDS011;62116;43.582;1.470;2022-09-27T17:31:32;7.82;;;1.80;;
65583;SDS011;62116;43.582;1.470;2022-09-27T17:33:58;9.20;;;1.70;;
65583;SDS011;62116;43.582;1.470;2022-09-27T17:36:25;10.88;;;1.98;;
65583;SDS011;62116;43.582;1.470;2022-09-27T17:38:53;12.48;;;2.00;;
65583;SDS011;62116;43.582;1.470;2022-09-27T17:41:23;8.68;;;1.65;;
65583;SDS011;62116;43.582;1.470;2022-09-27T17:43:51;6.50;;;1.65;;
65583;SDS011;62116;43.582;1.470;2022-09-27T17:46:25;9.48;;;1.73;;
65583;SDS011;62116;43.582;1.470;2022-09-27T17:48:58;10.02;;;1.60;;
65583;SDS011;62116;43.582;1.470;2022-09-27T17:51:45;9.05;;;1.50;;
65583;SDS011;62116;43.582;1.470;2022-09-27T17:54:11;9.10;;;1.80;;
65583;SDS011;62116;43.582;1.470;2022-09-27T17:56:37;7.35;;;1.65;;
65583;SDS011;62116;43.582;1.470;2022-09-27T17:59:04;6.55;;;1.50;;
65583;SDS011;62116;43.582;1.470;2022-09-27T18:01:30;8.15;;;1.52;;
65583;SDS011;62116;43.582;1.470;2022-09-27T18:03:58;9.18;;;1.42;;